Susquehanna — WDD9976 — position and weather

sailwx.info

Track history (hours):
 
Tides and Currents Weather Stations Pressure Air Temp Water Temp Dewpoint Dewpoint Depression Visibility Wind Speed Wind Dir Waves Ship Positions

Susquehanna

Owner: Vane Line Bunkering, Inc., Philadelphia, PA. More information available from US FCC via Universal Licensing System and Coast Guard Vessel Documentation Center.

Last reported at 2017-May-29 18:30 UTC. Time now 2017-May-29 18:49 UTC.
Position N 40°40' W 074°04'.

Length 28 m; draft 4.2 m.

Type: Tug. MMSI: 367318750.

Date/timePositionNaut miles runAvg speedWind from/ knotsBaromVisibWave heightAir tempDewpointWater temp
2017-May-29 18:30N 40°40' W 074°04'1 1.6
2017-May-29 18:00N 40°39' W 074°05'2 3.4
2017-May-29 17:30N 40°39' W 074°03'0 0.1
2017-May-29 17:00N 40°39' W 074°03'0 0.1
2017-May-29 16:30N 40°39' W 074°03'0 0.0
2017-May-29 16:00N 40°39' W 074°03'0 0.0
2017-May-29 15:30N 40°39' W 074°03'0 0.0
2017-May-29 15:00N 40°39' W 074°03'0 0.0
2017-May-29 14:30N 40°39' W 074°03'0 0.2
2017-May-29 13:30N 40°39' W 074°03'0 0.2
2017-May-29 13:00N 40°39' W 074°03'0 0.0
2017-May-29 12:30N 40°39' W 074°03'0 0.0
2017-May-29 12:00N 40°39' W 074°03'0 0.0
2017-May-29 11:30N 40°39' W 074°03'2 4.2
2017-May-29 11:00N 40°39' W 074°06'4 7.7
2017-May-29 10:30N 40°39' W 074°11'1 2.4
2017-May-29 09:59N 40°38' W 074°12'0 0.5
2017-May-29 09:30N 40°38' W 074°12'0 0.0
2017-May-29 09:00N 40°38' W 074°12'3 6.4
2017-May-29 08:29N 40°39' W 074°08'4 8.0
2017-May-29 08:00N 40°39' W 074°03'2 4.3
2017-May-29 07:30N 40°40' W 074°00'0 0.0
2017-May-29 07:00N 40°40' W 074°00'0 0.2
2017-May-29 06:30N 40°40' W 074°01'0 0.2
2017-May-29 06:00N 40°40' W 074°00'0 0.0
2017-May-29 05:30N 40°40' W 074°00'0 0.0
2017-May-29 05:00N 40°40' W 074°00'0 0.0
2017-May-29 04:30N 40°40' W 074°00'0 0.0
2017-May-29 04:00N 40°40' W 074°00'0 0.0
2017-May-29 03:30N 40°40' W 074°00'0 0.0
2017-May-29 03:00N 40°40' W 074°00'0 0.0
2017-May-29 02:30N 40°40' W 074°00'0 0.0
2017-May-29 02:00N 40°40' W 074°00'0 0.1
2017-May-29 01:30N 40°40' W 074°01'3 5.7
2017-May-29 01:00N 40°39' W 074°04'3 6.2
2017-May-29 00:30N 40°39' W 074°08'2 4.7
2017-May-29 00:00N 40°39' W 074°11'0 0.0
2017-May-28 23:30N 40°39' W 074°11'0 0.0
2017-May-28 23:00N 40°39' W 074°11'0 0.0
2017-May-28 22:30N 40°39' W 074°11'0 0.0
2017-May-28 21:57N 40°39' W 074°11'0 0.0
2017-May-28 21:29N 40°39' W 074°11'0 0.0
2017-May-28 21:00N 40°39' W 074°11'0 0.0
2017-May-28 20:30N 40°39' W 074°11'0 0.0
2017-May-28 20:00N 40°39' W 074°11'0 0.0
2017-May-28 19:30N 40°39' W 074°11'0 0.0
2017-May-28 19:00N 40°39' W 074°11'0 0.0
2017-May-28 18:30N 40°39' W 074°11'0 0.0
2017-May-28 18:00N 40°39' W 074°11'0 0.0
2017-May-28 17:30N 40°39' W 074°11'0 0.6
2017-May-28 17:00N 40°39' W 074°11'3 6.6
2017-May-28 16:30N 40°39' W 074°07'1 2.4
2017-May-28 16:00N 40°39' W 074°05'1 1.8
2017-May-28 15:31N 40°40' W 074°04'0 0.7
2017-May-28 15:00N 40°40' W 074°04'0 0.0
2017-May-28 14:00N 40°40' W 074°04'0 0.0
2017-May-28 13:30N 40°40' W 074°04'0 0.0
2017-May-28 13:00N 40°40' W 074°04'1 1.9
2017-May-28 12:30N 40°40' W 074°03'2 3.7
2017-May-28 12:00N 40°40' W 074°01'1 1.0
2017-May-28 11:30N 40°40' W 074°00'0 0.0
2017-May-28 11:00N 40°40' W 074°00'0 0.0
2017-May-28 10:30N 40°40' W 074°00'3 5.1
2017-May-28 10:00N 40°39' W 074°03'2 3.3
2017-May-28 09:30N 40°39' W 074°05'2 4.2
2017-May-28 09:01N 40°40' W 074°03'1 2.3
2017-May-28 08:30N 40°40' W 074°04'0 0.0
2017-May-28 08:00N 40°40' W 074°04'0 0.0
2017-May-28 07:30N 40°40' W 074°04'0 0.0
2017-May-28 07:00N 40°40' W 074°04'0 0.0
2017-May-28 06:30N 40°40' W 074°04'0 0.0
2017-May-28 06:00N 40°40' W 074°04'0 0.0
2017-May-28 05:30N 40°40' W 074°04'0 0.0
2017-May-28 05:00N 40°40' W 074°04'1 2.7
2017-May-28 04:30N 40°39' W 074°05'0 0.6
2017-May-28 04:00N 40°39' W 074°06'3 5.6
2017-May-28 03:30N 40°41' W 074°03'0 0.0
2017-May-28 03:00N 40°41' W 074°03'2 3.5
2017-May-28 02:30N 40°40' W 074°01'0 0.0
2017-May-28 02:00N 40°40' W 074°01'0 0.0
2017-May-28 01:30N 40°40' W 074°01'0 0.0
2017-May-28 01:00N 40°40' W 074°01'0 0.0
2017-May-28 00:30N 40°40' W 074°01'0 0.0
2017-May-28 00:00N 40°40' W 074°01'0 0.0
2017-May-27 23:30N 40°40' W 074°01'0 0.0
2017-May-27 23:00N 40°40' W 074°01'0 0.0
2017-May-27 22:30N 40°40' W 074°01'0 0.3
2017-May-27 22:00N 40°40' W 074°01'4 8.9
2017-May-27 21:30N 40°44' W 074°01'612.3
2017-May-27 21:00N 40°50' W 073°58'3 5.4
2017-May-27 20:30N 40°52' W 073°56'0 0.0
2017-May-27 20:00N 40°52' W 073°56'0 0.0
2017-May-27 19:30N 40°52' W 073°56'0 0.0
2017-May-27 19:00N 40°52' W 073°56'0 0.0
2017-May-27 18:30N 40°52' W 073°56'0 0.0
2017-May-27 18:00N 40°52' W 073°56'0 0.3
2017-May-27 17:30N 40°52' W 073°56'0 0.1
2017-May-27 17:00N 40°52' W 073°56'0 0.0
2017-May-27 16:30N 40°52' W 073°56'0 0.0
2017-May-27 16:00N 40°52' W 073°56'0 0.1
2017-May-27 15:30N 40°52' W 073°56'0 0.0
2017-May-27 15:00N 40°52' W 073°56'0 0.0
2017-May-27 14:30N 40°52' W 073°56'0 0.0
2017-May-27 13:30N 40°52' W 073°56'0 0.0
2017-May-27 13:00N 40°52' W 073°56'0 0.2
2017-May-27 12:30N 40°52' W 073°56'0 0.1
2017-May-27 12:00N 40°52' W 073°56'0 0.0
2017-May-27 11:30N 40°52' W 073°56'0 0.0
2017-May-27 11:00N 40°52' W 073°56'0 0.0
2017-May-27 10:30N 40°52' W 073°56'0 0.0
2017-May-27 10:00N 40°52' W 073°56'0 0.0
2017-May-27 09:30N 40°52' W 073°56'0 0.0
2017-May-27 09:00N 40°52' W 073°56'0 0.0
2017-May-27 08:30N 40°52' W 073°56'0 0.0
2017-May-27 08:00N 40°52' W 073°56'0 0.0
2017-May-27 07:30N 40°52' W 073°56'0 0.0
2017-May-27 07:00N 40°52' W 073°56'0 0.0
2017-May-27 06:30N 40°52' W 073°56'0 0.0
2017-May-27 06:00N 40°52' W 073°57'0 0.1
2017-May-27 05:30N 40°52' W 073°56'0 0.3
2017-May-27 05:00N 40°52' W 073°56'0 0.1
2017-May-27 04:30N 40°52' W 073°56'0 0.0
2017-May-27 04:00N 40°52' W 073°56'0 0.0
2017-May-27 03:30N 40°52' W 073°56'0 0.0
2017-May-27 03:00N 40°52' W 073°56'0 0.0
2017-May-27 02:30N 40°52' W 073°56'0 0.0
2017-May-27 02:00N 40°52' W 073°56'0 0.0
2017-May-27 01:30N 40°52' W 073°56'0 0.0
2017-May-27 01:00N 40°52' W 073°56'0 0.0
2017-May-27 00:30N 40°52' W 073°56'0 0.0
2017-May-27 00:00N 40°52' W 073°56'0 0.0
2017-May-26 23:30N 40°52' W 073°56'0 0.1
2017-May-26 23:00N 40°52' W 073°56'0 0.1
2017-May-26 22:30N 40°52' W 073°56'0 0.0
2017-May-26 22:00N 40°52' W 073°56'0 0.1
2017-May-26 21:30N 40°52' W 073°56'0 0.0
2017-May-26 21:00N 40°52' W 073°56'0 0.0
2017-May-26 20:30N 40°52' W 073°56'0 0.0
2017-May-26 20:00N 40°52' W 073°56'0 0.0
2017-May-26 19:30N 40°52' W 073°56'0 0.0
2017-May-26 19:00N 40°52' W 073°56'0 0.0
2017-May-26 18:30N 40°52' W 073°56'0 0.0
2017-May-26 18:00N 40°52' W 073°56'0 0.0
2017-May-26 17:30N 40°52' W 073°57'0 0.1
2017-May-26 17:00N 40°52' W 073°56'0 0.2
2017-May-26 16:30N 40°52' W 073°56'0 0.1
2017-May-26 16:00N 40°52' W 073°56'0 0.1
2017-May-26 15:30N 40°52' W 073°56'1 2.0
2017-May-26 15:00N 40°51' W 073°57'1111.0
2017-May-26 14:00N 40°41' W 074°02'3 6.8
2017-May-26 13:30N 40°38' W 074°04'0 0.3
2017-May-26 13:00N 40°38' W 074°04'0 0.3
2017-May-26 12:30N 40°38' W 074°04'3 6.1
2017-May-26 12:00N 40°41' W 074°02'4 7.7
2017-May-26 11:30N 40°45' W 074°01'4 8.4
2017-May-26 11:00N 40°49' W 073°58'5 9.1
2017-May-26 10:30N 40°53' W 073°56'3 6.7
2017-May-26 10:00N 40°56' W 073°55'1 0.0
2017-May-24 22:54N 40°55' W 073°55'410.9
2017-May-24 22:31N 40°51' W 073°57'510.8
2017-May-24 22:00N 40°46' W 074°00'510.1
2017-May-24 21:31N 40°42' W 074°02'4 7.0
2017-May-24 21:00N 40°38' W 074°04'2 3.9
2017-May-24 20:30N 40°37' W 074°03'3 6.2
2017-May-24 20:01N 40°34' W 074°02'3 6.3
2017-May-24 19:30N 40°31' W 073°59'4 7.0
2017-May-24 19:00N 40°29' W 073°55'4 7.2
2017-May-24 18:26N 40°25' W 073°54'34 7.3
2017-May-24 13:46N 39°51' W 073°57'2 7.5
2017-May-24 13:28N 39°49' W 073°57'4 7.6
2017-May-24 13:00N 39°46' W 073°58'4 7.6
2017-May-24 12:31N 39°42' W 073°60'4 7.6
2017-May-24 11:59N 39°39' W 074°02'4 7.4
2017-May-24 11:30N 39°36' W 074°04'4 7.3
2017-May-24 10:59N 39°32' W 074°07'3 7.4
2017-May-24 10:31N 39°29' W 074°09'25 7.8
2017-May-24 07:18N 39°09' W 074°29'13 7.9
2017-May-24 05:42N 39°00' W 074°40'3 7.7
2017-May-24 05:17N 38°58' W 074°43'2 7.9
2017-May-24 05:01N 38°56' W 074°44'4 7.8
2017-May-24 04:30N 38°53' W 074°47'4 7.4
2017-May-24 04:00N 38°50' W 074°50'4 8.1
2017-May-24 03:28N 38°49' W 074°55'12 7.9
2017-May-24 01:58N 38°57' W 075°06'9 8.7
2017-May-24 00:54N 39°05' W 075°11'3 7.8
2017-May-24 00:30N 39°08' W 075°14'4 7.2
2017-May-23 23:59N 39°11' W 075°16'3 6.2
2017-May-23 23:30N 39°14' W 075°18'3 6.1
2017-May-23 23:00N 39°16' W 075°21'3 5.9
2017-May-23 22:30N 39°18' W 075°23'3 6.2
2017-May-23 22:00N 39°20' W 075°26'1 2.9
2017-May-23 21:30N 39°22' W 075°27'3 6.8
2017-May-23 21:01N 39°24' W 075°30'4 8.8
2017-May-23 20:30N 39°27' W 075°34'511.0
2017-May-23 20:01N 39°33' W 075°33'510.6
2017-May-23 19:30N 39°38' W 075°34'611.2
2017-May-23 19:00N 39°43' W 075°31'510.9
2017-May-23 18:30N 39°47' W 075°27'510.7
2017-May-23 18:00N 39°51' W 075°21'510.2
2017-May-23 17:30N 39°51' W 075°15'4 8.4
2017-May-23 17:01N 39°53' W 075°09'0 0.1
2017-May-23 16:30N 39°53' W 075°09'2 3.5
2017-May-23 15:59N 39°54' W 075°11'0 0.0
2017-May-23 15:29N 39°54' W 075°11'0 0.0
2017-May-23 15:00N 39°54' W 075°11'0 0.0
2017-May-23 14:30N 39°54' W 075°11'0 0.0
2017-May-23 13:30N 39°54' W 075°11'0 0.0
2017-May-23 13:00N 39°54' W 075°11'0 0.0
2017-May-23 12:28N 39°54' W 075°11'0 0.0
2017-May-23 11:59N 39°54' W 075°11'0 0.0
2017-May-23 11:29N 39°54' W 075°11'1 1.3
2017-May-23 10:57N 39°54' W 075°12'0 0.0
2017-May-23 10:30N 39°54' W 075°12'0 0.0
2017-May-23 10:00N 39°54' W 075°12'0 0.0
2017-May-23 09:31N 39°54' W 075°12'0 0.0
2017-May-23 08:58N 39°54' W 075°12'0 0.0
2017-May-23 08:29N 39°54' W 075°12'0 0.0
2017-May-23 07:59N 39°54' W 075°12'0 0.0
2017-May-23 07:29N 39°54' W 075°12'0 0.0
2017-May-23 07:00N 39°54' W 075°12'0 0.0
2017-May-23 06:30N 39°54' W 075°12'0 0.2
2017-May-23 06:00N 39°54' W 075°12'0 1.0
2017-May-23 05:30N 39°53' W 075°12'2 3.5
2017-May-23 05:01N 39°53' W 075°10'0 0.2
2017-May-23 04:31N 39°53' W 075°09'2 3.8
2017-May-23 04:01N 39°53' W 075°12'0 0.9
2017-May-23 03:31N 39°54' W 075°12'0 0.2
2017-May-23 02:59N 39°54' W 075°12'0 0.0
2017-May-23 02:29N 39°54' W 075°12'0 0.0
2017-May-23 01:59N 39°54' W 075°12'0 0.0
2017-May-23 01:30N 39°54' W 075°12'0 0.0
2017-May-23 01:00N 39°54' W 075°12'0 0.0
2017-May-23 00:30N 39°54' W 075°12'0 0.0
2017-May-23 00:00N 39°54' W 075°12'0 0.0
2017-May-22 23:28N 39°54' W 075°12'0 0.0
2017-May-22 22:58N 39°54' W 075°12'1 1.2
2017-May-22 22:28N 39°53' W 075°12'0 0.0
2017-May-22 21:58N 39°53' W 075°12'1 1.3
2017-May-22 21:30N 39°53' W 075°11'3 5.6
2017-May-22 21:00N 39°54' W 075°08'1 2.9
2017-May-22 20:30N 39°53' W 075°09'3 5.0
2017-May-22 20:00N 39°54' W 075°12'0 0.0
2017-May-22 19:31N 39°54' W 075°12'0 0.0
2017-May-22 19:00N 39°54' W 075°12'0 0.0
2017-May-22 18:30N 39°54' W 075°12'0 0.0
2017-May-22 18:00N 39°54' W 075°12'0 0.0
2017-May-22 17:30N 39°54' W 075°12'0 0.0
2017-May-22 17:00N 39°54' W 075°12'2 4.3
2017-May-22 16:30N 39°53' W 075°10'1 2.6
2017-May-22 16:00N 39°54' W 075°08'0 0.9
2017-May-22 15:30N 39°54' W 075°08'0 0.9
2017-May-22 15:00N 39°54' W 075°09'0 0.0
2017-May-22 14:00N 39°54' W 075°09'0 0.0
2017-May-22 13:30N 39°54' W 075°09'0 0.0
2017-May-22 13:00N 39°54' W 075°09'0 0.0
2017-May-22 12:30N 39°54' W 075°09'0 0.0
2017-May-22 12:00N 39°54' W 075°09'0 0.0
2017-May-22 11:30N 39°54' W 075°09'1 2.0
2017-May-22 11:00N 39°53' W 075°09'3 5.0
2017-May-22 10:30N 39°54' W 075°12'0 0.0
2017-May-22 10:00N 39°54' W 075°12'0 0.0
2017-May-22 09:28N 39°54' W 075°12'0 0.0
2017-May-22 08:58N 39°54' W 075°12'0 0.0
2017-May-22 08:28N 39°54' W 075°12'0 0.0
2017-May-22 07:59N 39°54' W 075°12'0 0.0
2017-May-22 07:29N 39°54' W 075°12'0 0.0
2017-May-22 06:59N 39°54' W 075°12'0 0.0
2017-May-22 06:30N 39°54' W 075°12'0 0.0
2017-May-22 06:00N 39°54' W 075°12'0 0.0
2017-May-22 05:30N 39°54' W 075°12'0 0.0
2017-May-22 04:58N 39°54' W 075°12'0 0.0
2017-May-22 04:28N 39°54' W 075°12'0 0.0
2017-May-22 03:58N 39°54' W 075°12'0 0.0
2017-May-22 03:29N 39°54' W 075°12'0 0.0
2017-May-22 02:59N 39°54' W 075°12'0 0.0
2017-May-22 02:29N 39°54' W 075°12'0 0.0
2017-May-22 02:00N 39°54' W 075°12'0 0.0
2017-May-22 01:30N 39°54' W 075°12'0 0.3
2017-May-22 00:59N 39°54' W 075°12'0 0.0
2017-May-22 00:29N 39°54' W 075°12'0 0.3
2017-May-22 00:00N 39°54' W 075°12'0 0.0
2017-May-21 23:30N 39°54' W 075°12'0 0.0
2017-May-21 23:00N 39°54' W 075°12'1 1.5
2017-May-21 22:30N 39°53' W 075°12'2 4.3
2017-May-21 22:00N 39°52' W 075°14'1 1.1
2017-May-21 21:30N 39°52' W 075°13'2 3.4
2017-May-21 20:58N 39°54' W 075°12'0 0.0
2017-May-21 20:28N 39°54' W 075°12'0 0.0
2017-May-21 19:58N 39°54' W 075°12'0 0.0
2017-May-21 19:29N 39°54' W 075°12'0 0.0
2017-May-21 18:56N 39°54' W 075°12'0 0.0
2017-May-21 18:29N 39°54' W 075°12'0 0.0
2017-May-21 18:00N 39°54' W 075°12'0 0.0
2017-May-21 17:30N 39°54' W 075°12'0 0.0
2017-May-21 17:00N 39°54' W 075°12'0 0.0
2017-May-21 16:28N 39°54' W 075°12'0 0.0
2017-May-21 15:58N 39°54' W 075°12'0 0.0
2017-May-21 15:28N 39°54' W 075°12'0 0.0
2017-May-21 14:59N 39°54' W 075°12'0 0.0
2017-May-21 14:26N 39°54' W 075°12'0 0.0
2017-May-21 13:30N 39°54' W 075°12'0 0.0
2017-May-21 13:00N 39°54' W 075°12'0 0.0
2017-May-21 12:30N 39°54' W 075°12'0 0.0
2017-May-21 11:58N 39°54' W 075°12'0 0.0
2017-May-21 11:28N 39°54' W 075°12'0 0.1
2017-May-21 10:58N 39°54' W 075°12'1 3.0
2017-May-21 10:29N 39°52' W 075°12'0 0.1
2017-May-21 09:59N 39°52' W 075°13'0 0.0
2017-May-21 09:30N 39°52' W 075°13'0 0.1
2017-May-21 08:57N 39°52' W 075°13'0 0.0
2017-May-21 08:27N 39°52' W 075°13'0 0.0
2017-May-21 07:58N 39°52' W 075°13'0 0.0
2017-May-21 07:28N 39°52' W 075°13'0 0.0
2017-May-21 06:55N 39°52' W 075°13'0 0.0
2017-May-21 06:29N 39°52' W 075°13'0 0.0
2017-May-21 05:59N 39°52' W 075°13'0 0.0
2017-May-21 05:29N 39°52' W 075°13'0 0.0
2017-May-21 05:00N 39°52' W 075°13'0 0.0
2017-May-21 04:21N 39°52' W 075°13'0 0.0
2017-May-21 04:00N 39°52' W 075°13'0 0.0
2017-May-21 03:28N 39°52' W 075°13'0 0.1
2017-May-21 02:58N 39°52' W 075°13'0 0.1
2017-May-21 02:28N 39°52' W 075°13'0 0.0
2017-May-21 01:59N 39°52' W 075°12'0 0.0
2017-May-21 01:29N 39°52' W 075°12'0 0.0
2017-May-21 00:59N 39°52' W 075°12'0 0.0
2017-May-21 00:30N 39°52' W 075°12'0 0.0
2017-May-21 00:00N 39°52' W 075°12'0 0.0
2017-May-20 23:30N 39°52' W 075°12'0 0.1
2017-May-20 23:00N 39°52' W 075°13'3 5.1
2017-May-20 22:30N 39°53' W 075°09'3 5.5
2017-May-20 22:00N 39°55' W 075°08'0 0.0
2017-May-20 21:28N 39°55' W 075°08'0 0.1
2017-May-20 20:58N 39°55' W 075°08'0 0.2
2017-May-20 20:28N 39°55' W 075°08'0 0.0
2017-May-20 19:59N 39°55' W 075°08'0 0.0
2017-May-20 19:29N 39°55' W 075°08'0 0.0
2017-May-20 18:59N 39°55' W 075°08'0 0.0
2017-May-20 18:30N 39°55' W 075°08'0 0.0
2017-May-20 18:00N 39°55' W 075°08'0 0.0
2017-May-20 17:30N 39°55' W 075°08'0 0.0
2017-May-20 16:58N 39°55' W 075°08'0 0.0
2017-May-20 16:28N 39°55' W 075°08'0 0.1
2017-May-20 16:00N 39°55' W 075°08'0 0.5
2017-May-20 15:29N 39°56' W 075°08'0 0.5
2017-May-20 14:58N 39°55' W 075°08'0 0.1
2017-May-20 14:28N 39°55' W 075°08'0 0.0
2017-May-20 13:29N 39°55' W 075°08'0 0.0
2017-May-20 12:59N 39°56' W 075°08'0 0.0
2017-May-20 12:30N 39°55' W 075°08'0 0.0
2017-May-20 12:00N 39°55' W 075°08'0 0.0
2017-May-20 11:30N 39°56' W 075°08'0 0.0
2017-May-20 10:58N 39°56' W 075°08'0 0.0
2017-May-20 10:28N 39°56' W 075°08'0 0.0
2017-May-20 09:58N 39°56' W 075°08'0 0.0
2017-May-20 09:31N 39°56' W 075°08'3 5.7
2017-May-20 09:01N 39°53' W 075°09'5 9.5
2017-May-20 08:31N 39°51' W 075°15'5 9.9
2017-May-20 08:01N 39°50' W 075°21'5 9.7
2017-May-20 07:31N 39°47' W 075°27'4 8.8
2017-May-20 07:01N 39°44' W 075°30'4 8.9
2017-May-20 06:30N 39°40' W 075°32'4 7.9
2017-May-20 06:01N 39°36' W 075°34'1 2.9
2017-May-20 05:31N 39°35' W 075°35'1 1.4
2017-May-20 05:00N 39°35' W 075°36'0 0.0
2017-May-20 04:31N 39°35' W 075°36'0 0.0
2017-May-20 04:00N 39°35' W 075°36'0 0.0
2017-May-20 03:29N 39°35' W 075°36'0 0.0
2017-May-20 03:00N 39°35' W 075°36'0 0.0
2017-May-20 02:30N 39°35' W 075°36'0 0.0
2017-May-20 02:00N 39°35' W 075°36'0 0.0
2017-May-20 01:31N 39°35' W 075°36'0 0.0
2017-May-20 00:58N 39°35' W 075°36'0 0.0
2017-May-20 00:28N 39°35' W 075°36'0 0.0
2017-May-19 23:59N 39°35' W 075°36'0 0.0
2017-May-19 23:29N 39°35' W 075°36'0 0.0
2017-May-19 22:59N 39°35' W 075°36'0 0.0
2017-May-19 22:30N 39°35' W 075°36'0 0.0
2017-May-19 22:00N 39°35' W 075°36'0 0.0
2017-May-19 21:29N 39°35' W 075°36'0 0.0
2017-May-19 20:59N 39°35' W 075°36'0 0.0
2017-May-19 20:30N 39°35' W 075°36'0 0.0
2017-May-19 20:00N 39°35' W 075°36'0 0.0
2017-May-19 19:30N 39°35' W 075°36'0 0.0
2017-May-19 18:58N 39°35' W 075°36'  
Track history (hours):
 
Tides and Currents Weather Stations Pressure Air Temp Water Temp Dewpoint Dewpoint Depression Visibility Wind Speed Wind Dir Waves Ship Positions

Susquehanna

Owner: Vane Line Bunkering, Inc., Philadelphia, PA. More information available from US FCC via Universal Licensing System and Coast Guard Vessel Documentation Center.

Last reported at 2017-May-29 18:30 UTC. Time now 2017-May-29 18:50 UTC.
Position N 40°40' W 074°04'.

Length 28 m; draft 4.2 m.

Type: Tug. MMSI: 367318750.

Date/timePositionNaut miles runAvg speedWind from/ knotsBaromVisibWave heightAir tempDewpointWater temp
2017-May-29 18:30N 40°40' W 074°04'1 1.6
2017-May-29 18:00N 40°39' W 074°05'2 3.4
2017-May-29 17:30N 40°39' W 074°03'0 0.1
2017-May-29 17:00N 40°39' W 074°03'0 0.1
2017-May-29 16:30N 40°39' W 074°03'0 0.0
2017-May-29 16:00N 40°39' W 074°03'0 0.0
2017-May-29 15:30N 40°39' W 074°03'0 0.0
2017-May-29 15:00N 40°39' W 074°03'0 0.0
2017-May-29 14:30N 40°39' W 074°03'0 0.2
2017-May-29 13:30N 40°39' W 074°03'0 0.2
2017-May-29 13:00N 40°39' W 074°03'0 0.0
2017-May-29 12:30N 40°39' W 074°03'0 0.0
2017-May-29 12:00N 40°39' W 074°03'0 0.0
2017-May-29 11:30N 40°39' W 074°03'2 4.2
2017-May-29 11:00N 40°39' W 074°06'4 7.7
2017-May-29 10:30N 40°39' W 074°11'1 2.4
2017-May-29 09:59N 40°38' W 074°12'0 0.5
2017-May-29 09:30N 40°38' W 074°12'0 0.0
2017-May-29 09:00N 40°38' W 074°12'3 6.4
2017-May-29 08:29N 40°39' W 074°08'4 8.0
2017-May-29 08:00N 40°39' W 074°03'2 4.3
2017-May-29 07:30N 40°40' W 074°00'0 0.0
2017-May-29 07:00N 40°40' W 074°00'0 0.2
2017-May-29 06:30N 40°40' W 074°01'0 0.2
2017-May-29 06:00N 40°40' W 074°00'0 0.0
2017-May-29 05:30N 40°40' W 074°00'0 0.0
2017-May-29 05:00N 40°40' W 074°00'0 0.0
2017-May-29 04:30N 40°40' W 074°00'0 0.0
2017-May-29 04:00N 40°40' W 074°00'0 0.0
2017-May-29 03:30N 40°40' W 074°00'0 0.0
2017-May-29 03:00N 40°40' W 074°00'0 0.0
2017-May-29 02:30N 40°40' W 074°00'0 0.0
2017-May-29 02:00N 40°40' W 074°00'0 0.1
2017-May-29 01:30N 40°40' W 074°01'3 5.7
2017-May-29 01:00N 40°39' W 074°04'3 6.2
2017-May-29 00:30N 40°39' W 074°08'2 4.7
2017-May-29 00:00N 40°39' W 074°11'0 0.0
2017-May-28 23:30N 40°39' W 074°11'0 0.0
2017-May-28 23:00N 40°39' W 074°11'0 0.0
2017-May-28 22:30N 40°39' W 074°11'0 0.0
2017-May-28 21:57N 40°39' W 074°11'0 0.0
2017-May-28 21:29N 40°39' W 074°11'0 0.0
2017-May-28 21:00N 40°39' W 074°11'0 0.0
2017-May-28 20:30N 40°39' W 074°11'0 0.0
2017-May-28 20:00N 40°39' W 074°11'0 0.0
2017-May-28 19:30N 40°39' W 074°11'0 0.0
2017-May-28 19:00N 40°39' W 074°11'0 0.0
2017-May-28 18:30N 40°39' W 074°11'0 0.0
2017-May-28 18:00N 40°39' W 074°11'0 0.0
2017-May-28 17:30N 40°39' W 074°11'0 0.6
2017-May-28 17:00N 40°39' W 074°11'3 6.6
2017-May-28 16:30N 40°39' W 074°07'1 2.4
2017-May-28 16:00N 40°39' W 074°05'1 1.8
2017-May-28 15:31N 40°40' W 074°04'0 0.7
2017-May-28 15:00N 40°40' W 074°04'0 0.0
2017-May-28 14:00N 40°40' W 074°04'0 0.0
2017-May-28 13:30N 40°40' W 074°04'0 0.0
2017-May-28 13:00N 40°40' W 074°04'1 1.9
2017-May-28 12:30N 40°40' W 074°03'2 3.7
2017-May-28 12:00N 40°40' W 074°01'1 1.0
2017-May-28 11:30N 40°40' W 074°00'0 0.0
2017-May-28 11:00N 40°40' W 074°00'0 0.0
2017-May-28 10:30N 40°40' W 074°00'3 5.1
2017-May-28 10:00N 40°39' W 074°03'2 3.3
2017-May-28 09:30N 40°39' W 074°05'2 4.2
2017-May-28 09:01N 40°40' W 074°03'1 2.3
2017-May-28 08:30N 40°40' W 074°04'0 0.0
2017-May-28 08:00N 40°40' W 074°04'0 0.0
2017-May-28 07:30N 40°40' W 074°04'0 0.0
2017-May-28 07:00N 40°40' W 074°04'0 0.0
2017-May-28 06:30N 40°40' W 074°04'0 0.0
2017-May-28 06:00N 40°40' W 074°04'0 0.0
2017-May-28 05:30N 40°40' W 074°04'0 0.0
2017-May-28 05:00N 40°40' W 074°04'1 2.7
2017-May-28 04:30N 40°39' W 074°05'0 0.6
2017-May-28 04:00N 40°39' W 074°06'3 5.6
2017-May-28 03:30N 40°41' W 074°03'0 0.0
2017-May-28 03:00N 40°41' W 074°03'2 3.5
2017-May-28 02:30N 40°40' W 074°01'0 0.0
2017-May-28 02:00N 40°40' W 074°01'0 0.0
2017-May-28 01:30N 40°40' W 074°01'0 0.0
2017-May-28 01:00N 40°40' W 074°01'0 0.0
2017-May-28 00:30N 40°40' W 074°01'0 0.0
2017-May-28 00:00N 40°40' W 074°01'0 0.0
2017-May-27 23:30N 40°40' W 074°01'0 0.0
2017-May-27 23:00N 40°40' W 074°01'0 0.0
2017-May-27 22:30N 40°40' W 074°01'0 0.3
2017-May-27 22:00N 40°40' W 074°01'4 8.9
2017-May-27 21:30N 40°44' W 074°01'612.3
2017-May-27 21:00N 40°50' W 073°58'3 5.4
2017-May-27 20:30N 40°52' W 073°56'0 0.0
2017-May-27 20:00N 40°52' W 073°56'0 0.0
2017-May-27 19:30N 40°52' W 073°56'0 0.0
2017-May-27 19:00N 40°52' W 073°56'0 0.0
2017-May-27 18:30N 40°52' W 073°56'0 0.0
2017-May-27 18:00N 40°52' W 073°56'0 0.3
2017-May-27 17:30N 40°52' W 073°56'0 0.1
2017-May-27 17:00N 40°52' W 073°56'0 0.0
2017-May-27 16:30N 40°52' W 073°56'0 0.0
2017-May-27 16:00N 40°52' W 073°56'0 0.1
2017-May-27 15:30N 40°52' W 073°56'0 0.0
2017-May-27 15:00N 40°52' W 073°56'0 0.0
2017-May-27 14:30N 40°52' W 073°56'0 0.0
2017-May-27 13:30N 40°52' W 073°56'0 0.0
2017-May-27 13:00N 40°52' W 073°56'0 0.2
2017-May-27 12:30N 40°52' W 073°56'0 0.1
2017-May-27 12:00N 40°52' W 073°56'0 0.0
2017-May-27 11:30N 40°52' W 073°56'0 0.0
2017-May-27 11:00N 40°52' W 073°56'0 0.0
2017-May-27 10:30N 40°52' W 073°56'0 0.0
2017-May-27 10:00N 40°52' W 073°56'0 0.0
2017-May-27 09:30N 40°52' W 073°56'0 0.0
2017-May-27 09:00N 40°52' W 073°56'0 0.0
2017-May-27 08:30N 40°52' W 073°56'0 0.0
2017-May-27 08:00N 40°52' W 073°56'0 0.0
2017-May-27 07:30N 40°52' W 073°56'0 0.0
2017-May-27 07:00N 40°52' W 073°56'0 0.0
2017-May-27 06:30N 40°52' W 073°56'0 0.0
2017-May-27 06:00N 40°52' W 073°57'0 0.1
2017-May-27 05:30N 40°52' W 073°56'0 0.3
2017-May-27 05:00N 40°52' W 073°56'0 0.1
2017-May-27 04:30N 40°52' W 073°56'0 0.0
2017-May-27 04:00N 40°52' W 073°56'0 0.0
2017-May-27 03:30N 40°52' W 073°56'0 0.0
2017-May-27 03:00N 40°52' W 073°56'0 0.0
2017-May-27 02:30N 40°52' W 073°56'0 0.0
2017-May-27 02:00N 40°52' W 073°56'0 0.0
2017-May-27 01:30N 40°52' W 073°56'0 0.0
2017-May-27 01:00N 40°52' W 073°56'0 0.0
2017-May-27 00:30N 40°52' W 073°56'0 0.0
2017-May-27 00:00N 40°52' W 073°56'0 0.0
2017-May-26 23:30N 40°52' W 073°56'0 0.1
2017-May-26 23:00N 40°52' W 073°56'0 0.1
2017-May-26 22:30N 40°52' W 073°56'0 0.0
2017-May-26 22:00N 40°52' W 073°56'0 0.1
2017-May-26 21:30N 40°52' W 073°56'0 0.0
2017-May-26 21:00N 40°52' W 073°56'0 0.0
2017-May-26 20:30N 40°52' W 073°56'0 0.0
2017-May-26 20:00N 40°52' W 073°56'0 0.0
2017-May-26 19:30N 40°52' W 073°56'0 0.0
2017-May-26 19:00N 40°52' W 073°56'0 0.0
2017-May-26 18:30N 40°52' W 073°56'0 0.0
2017-May-26 18:00N 40°52' W 073°56'0 0.0
2017-May-26 17:30N 40°52' W 073°57'0 0.1
2017-May-26 17:00N 40°52' W 073°56'0 0.2
2017-May-26 16:30N 40°52' W 073°56'0 0.1
2017-May-26 16:00N 40°52' W 073°56'0 0.1
2017-May-26 15:30N 40°52' W 073°56'1 2.0
2017-May-26 15:00N 40°51' W 073°57'1111.0
2017-May-26 14:00N 40°41' W 074°02'3 6.8
2017-May-26 13:30N 40°38' W 074°04'0 0.3
2017-May-26 13:00N 40°38' W 074°04'0 0.3
2017-May-26 12:30N 40°38' W 074°04'3 6.1
2017-May-26 12:00N 40°41' W 074°02'4 7.7
2017-May-26 11:30N 40°45' W 074°01'4 8.4
2017-May-26 11:00N 40°49' W 073°58'5 9.1
2017-May-26 10:30N 40°53' W 073°56'3 6.7
2017-May-26 10:00N 40°56' W 073°55'1 0.0
2017-May-24 22:54N 40°55' W 073°55'410.9
2017-May-24 22:31N 40°51' W 073°57'510.8
2017-May-24 22:00N 40°46' W 074°00'510.1
2017-May-24 21:31N 40°42' W 074°02'4 7.0
2017-May-24 21:00N 40°38' W 074°04'2 3.9
2017-May-24 20:30N 40°37' W 074°03'3 6.2
2017-May-24 20:01N 40°34' W 074°02'3 6.3
2017-May-24 19:30N 40°31' W 073°59'4 7.0
2017-May-24 19:00N 40°29' W 073°55'4 7.2
2017-May-24 18:26N 40°25' W 073°54'34 7.3
2017-May-24 13:46N 39°51' W 073°57'2 7.5
2017-May-24 13:28N 39°49' W 073°57'4 7.6
2017-May-24 13:00N 39°46' W 073°58'4 7.6
2017-May-24 12:31N 39°42' W 073°60'4 7.6
2017-May-24 11:59N 39°39' W 074°02'4 7.4
2017-May-24 11:30N 39°36' W 074°04'4 7.3
2017-May-24 10:59N 39°32' W 074°07'3 7.4
2017-May-24 10:31N 39°29' W 074°09'25 7.8
2017-May-24 07:18N 39°09' W 074°29'13 7.9
2017-May-24 05:42N 39°00' W 074°40'3 7.7
2017-May-24 05:17N 38°58' W 074°43'2 7.9
2017-May-24 05:01N 38°56' W 074°44'4 7.8
2017-May-24 04:30N 38°53' W 074°47'4 7.4
2017-May-24 04:00N 38°50' W 074°50'4 8.1
2017-May-24 03:28N 38°49' W 074°55'12 7.9
2017-May-24 01:58N 38°57' W 075°06'9 8.7
2017-May-24 00:54N 39°05' W 075°11'3 7.8
2017-May-24 00:30N 39°08' W 075°14'4 7.2
2017-May-23 23:59N 39°11' W 075°16'3 6.2
2017-May-23 23:30N 39°14' W 075°18'3 6.1
2017-May-23 23:00N 39°16' W 075°21'3 5.9
2017-May-23 22:30N 39°18' W 075°23'3 6.2
2017-May-23 22:00N 39°20' W 075°26'1 2.9
2017-May-23 21:30N 39°22' W 075°27'3 6.8
2017-May-23 21:01N 39°24' W 075°30'4 8.8
2017-May-23 20:30N 39°27' W 075°34'511.0
2017-May-23 20:01N 39°33' W 075°33'510.6
2017-May-23 19:30N 39°38' W 075°34'611.2
2017-May-23 19:00N 39°43' W 075°31'510.9
2017-May-23 18:30N 39°47' W 075°27'510.7
2017-May-23 18:00N 39°51' W 075°21'510.2
2017-May-23 17:30N 39°51' W 075°15'4 8.4
2017-May-23 17:01N 39°53' W 075°09'0 0.1
2017-May-23 16:30N 39°53' W 075°09'2 3.5
2017-May-23 15:59N 39°54' W 075°11'0 0.0
2017-May-23 15:29N 39°54' W 075°11'0 0.0
2017-May-23 15:00N 39°54' W 075°11'0 0.0
2017-May-23 14:30N 39°54' W 075°11'0 0.0
2017-May-23 13:30N 39°54' W 075°11'0 0.0
2017-May-23 13:00N 39°54' W 075°11'0 0.0
2017-May-23 12:28N 39°54' W 075°11'0 0.0
2017-May-23 11:59N 39°54' W 075°11'0 0.0
2017-May-23 11:29N 39°54' W 075°11'1 1.3
2017-May-23 10:57N 39°54' W 075°12'0 0.0
2017-May-23 10:30N 39°54' W 075°12'0 0.0
2017-May-23 10:00N 39°54' W 075°12'0 0.0
2017-May-23 09:31N 39°54' W 075°12'0 0.0
2017-May-23 08:58N 39°54' W 075°12'0 0.0
2017-May-23 08:29N 39°54' W 075°12'0 0.0
2017-May-23 07:59N 39°54' W 075°12'0 0.0
2017-May-23 07:29N 39°54' W 075°12'0 0.0
2017-May-23 07:00N 39°54' W 075°12'0 0.0
2017-May-23 06:30N 39°54' W 075°12'0 0.2
2017-May-23 06:00N 39°54' W 075°12'0 1.0
2017-May-23 05:30N 39°53' W 075°12'2 3.5
2017-May-23 05:01N 39°53' W 075°10'0 0.2
2017-May-23 04:31N 39°53' W 075°09'2 3.8
2017-May-23 04:01N 39°53' W 075°12'0 0.9
2017-May-23 03:31N 39°54' W 075°12'0 0.2
2017-May-23 02:59N 39°54' W 075°12'0 0.0
2017-May-23 02:29N 39°54' W 075°12'0 0.0
2017-May-23 01:59N 39°54' W 075°12'0 0.0
2017-May-23 01:30N 39°54' W 075°12'0 0.0
2017-May-23 01:00N 39°54' W 075°12'0 0.0
2017-May-23 00:30N 39°54' W 075°12'0 0.0
2017-May-23 00:00N 39°54' W 075°12'0 0.0
2017-May-22 23:28N 39°54' W 075°12'0 0.0
2017-May-22 22:58N 39°54' W 075°12'1 1.2
2017-May-22 22:28N 39°53' W 075°12'0 0.0
2017-May-22 21:58N 39°53' W 075°12'1 1.3
2017-May-22 21:30N 39°53' W 075°11'3 5.6
2017-May-22 21:00N 39°54' W 075°08'1 2.9
2017-May-22 20:30N 39°53' W 075°09'3 5.0
2017-May-22 20:00N 39°54' W 075°12'0 0.0
2017-May-22 19:31N 39°54' W 075°12'0 0.0
2017-May-22 19:00N 39°54' W 075°12'0 0.0
2017-May-22 18:30N 39°54' W 075°12'0 0.0
2017-May-22 18:00N 39°54' W 075°12'0 0.0
2017-May-22 17:30N 39°54' W 075°12'0 0.0
2017-May-22 17:00N 39°54' W 075°12'2 4.3
2017-May-22 16:30N 39°53' W 075°10'1 2.6
2017-May-22 16:00N 39°54' W 075°08'0 0.9
2017-May-22 15:30N 39°54' W 075°08'0 0.9
2017-May-22 15:00N 39°54' W 075°09'0 0.0
2017-May-22 14:00N 39°54' W 075°09'0 0.0
2017-May-22 13:30N 39°54' W 075°09'0 0.0
2017-May-22 13:00N 39°54' W 075°09'0 0.0
2017-May-22 12:30N 39°54' W 075°09'0 0.0
2017-May-22 12:00N 39°54' W 075°09'0 0.0
2017-May-22 11:30N 39°54' W 075°09'1 2.0
2017-May-22 11:00N 39°53' W 075°09'3 5.0
2017-May-22 10:30N 39°54' W 075°12'0 0.0
2017-May-22 10:00N 39°54' W 075°12'0 0.0
2017-May-22 09:28N 39°54' W 075°12'0 0.0
2017-May-22 08:58N 39°54' W 075°12'0 0.0
2017-May-22 08:28N 39°54' W 075°12'0 0.0
2017-May-22 07:59N 39°54' W 075°12'0 0.0
2017-May-22 07:29N 39°54' W 075°12'0 0.0
2017-May-22 06:59N 39°54' W 075°12'0 0.0
2017-May-22 06:30N 39°54' W 075°12'0 0.0
2017-May-22 06:00N 39°54' W 075°12'0 0.0
2017-May-22 05:30N 39°54' W 075°12'0 0.0
2017-May-22 04:58N 39°54' W 075°12'0 0.0
2017-May-22 04:28N 39°54' W 075°12'0 0.0
2017-May-22 03:58N 39°54' W 075°12'0 0.0
2017-May-22 03:29N 39°54' W 075°12'0 0.0
2017-May-22 02:59N 39°54' W 075°12'0 0.0
2017-May-22 02:29N 39°54' W 075°12'0 0.0
2017-May-22 02:00N 39°54' W 075°12'0 0.0
2017-May-22 01:30N 39°54' W 075°12'0 0.3
2017-May-22 00:59N 39°54' W 075°12'0 0.0
2017-May-22 00:29N 39°54' W 075°12'0 0.3
2017-May-22 00:00N 39°54' W 075°12'0 0.0
2017-May-21 23:30N 39°54' W 075°12'0 0.0
2017-May-21 23:00N 39°54' W 075°12'1 1.5
2017-May-21 22:30N 39°53' W 075°12'2 4.3
2017-May-21 22:00N 39°52' W 075°14'1 1.1
2017-May-21 21:30N 39°52' W 075°13'2 3.4
2017-May-21 20:58N 39°54' W 075°12'0 0.0
2017-May-21 20:28N 39°54' W 075°12'0 0.0
2017-May-21 19:58N 39°54' W 075°12'0 0.0
2017-May-21 19:29N 39°54' W 075°12'0 0.0
2017-May-21 18:56N 39°54' W 075°12'0 0.0
2017-May-21 18:29N 39°54' W 075°12'0 0.0
2017-May-21 18:00N 39°54' W 075°12'0 0.0
2017-May-21 17:30N 39°54' W 075°12'0 0.0
2017-May-21 17:00N 39°54' W 075°12'0 0.0
2017-May-21 16:28N 39°54' W 075°12'0 0.0
2017-May-21 15:58N 39°54' W 075°12'0 0.0
2017-May-21 15:28N 39°54' W 075°12'0 0.0
2017-May-21 14:59N 39°54' W 075°12'0 0.0
2017-May-21 14:26N 39°54' W 075°12'0 0.0
2017-May-21 13:30N 39°54' W 075°12'0 0.0
2017-May-21 13:00N 39°54' W 075°12'0 0.0
2017-May-21 12:30N 39°54' W 075°12'0 0.0
2017-May-21 11:58N 39°54' W 075°12'0 0.0
2017-May-21 11:28N 39°54' W 075°12'0 0.1
2017-May-21 10:58N 39°54' W 075°12'1 3.0
2017-May-21 10:29N 39°52' W 075°12'0 0.1
2017-May-21 09:59N 39°52' W 075°13'0 0.0
2017-May-21 09:30N 39°52' W 075°13'0 0.1
2017-May-21 08:57N 39°52' W 075°13'0 0.0
2017-May-21 08:27N 39°52' W 075°13'0 0.0
2017-May-21 07:58N 39°52' W 075°13'0 0.0
2017-May-21 07:28N 39°52' W 075°13'0 0.0
2017-May-21 06:55N 39°52' W 075°13'0 0.0
2017-May-21 06:29N 39°52' W 075°13'0 0.0
2017-May-21 05:59N 39°52' W 075°13'0 0.0
2017-May-21 05:29N 39°52' W 075°13'0 0.0
2017-May-21 05:00N 39°52' W 075°13'0 0.0
2017-May-21 04:21N 39°52' W 075°13'0 0.0
2017-May-21 04:00N 39°52' W 075°13'0 0.0
2017-May-21 03:28N 39°52' W 075°13'0 0.1
2017-May-21 02:58N 39°52' W 075°13'0 0.1
2017-May-21 02:28N 39°52' W 075°13'0 0.0
2017-May-21 01:59N 39°52' W 075°12'0 0.0
2017-May-21 01:29N 39°52' W 075°12'0 0.0
2017-May-21 00:59N 39°52' W 075°12'0 0.0
2017-May-21 00:30N 39°52' W 075°12'0 0.0
2017-May-21 00:00N 39°52' W 075°12'0 0.0
2017-May-20 23:30N 39°52' W 075°12'0 0.1
2017-May-20 23:00N 39°52' W 075°13'3 5.1
2017-May-20 22:30N 39°53' W 075°09'3 5.5
2017-May-20 22:00N 39°55' W 075°08'0 0.0
2017-May-20 21:28N 39°55' W 075°08'0 0.1
2017-May-20 20:58N 39°55' W 075°08'0 0.2
2017-May-20 20:28N 39°55' W 075°08'0 0.0
2017-May-20 19:59N 39°55' W 075°08'0 0.0
2017-May-20 19:29N 39°55' W 075°08'0 0.0
2017-May-20 18:59N 39°55' W 075°08'0 0.0
2017-May-20 18:30N 39°55' W 075°08'0 0.0
2017-May-20 18:00N 39°55' W 075°08'0 0.0
2017-May-20 17:30N 39°55' W 075°08'0 0.0
2017-May-20 16:58N 39°55' W 075°08'0 0.0
2017-May-20 16:28N 39°55' W 075°08'0 0.1
2017-May-20 16:00N 39°55' W 075°08'0 0.5
2017-May-20 15:29N 39°56' W 075°08'0 0.5
2017-May-20 14:58N 39°55' W 075°08'0 0.1
2017-May-20 14:28N 39°55' W 075°08'0 0.0
2017-May-20 13:29N 39°55' W 075°08'0 0.0
2017-May-20 12:59N 39°56' W 075°08'0 0.0
2017-May-20 12:30N 39°55' W 075°08'0 0.0
2017-May-20 12:00N 39°55' W 075°08'0 0.0
2017-May-20 11:30N 39°56' W 075°08'0 0.0
2017-May-20 10:58N 39°56' W 075°08'0 0.0
2017-May-20 10:28N 39°56' W 075°08'0 0.0
2017-May-20 09:58N 39°56' W 075°08'0 0.0
2017-May-20 09:31N 39°56' W 075°08'3 5.7
2017-May-20 09:01N 39°53' W 075°09'5 9.5
2017-May-20 08:31N 39°51' W 075°15'5 9.9
2017-May-20 08:01N 39°50' W 075°21'5 9.7
2017-May-20 07:31N 39°47' W 075°27'4 8.8
2017-May-20 07:01N 39°44' W 075°30'4 8.9
2017-May-20 06:30N 39°40' W 075°32'4 7.9
2017-May-20 06:01N 39°36' W 075°34'1 2.9
2017-May-20 05:31N 39°35' W 075°35'1 1.4
2017-May-20 05:00N 39°35' W 075°36'0 0.0
2017-May-20 04:31N 39°35' W 075°36'0 0.0
2017-May-20 04:00N 39°35' W 075°36'0 0.0
2017-May-20 03:29N 39°35' W 075°36'0 0.0
2017-May-20 03:00N 39°35' W 075°36'0 0.0
2017-May-20 02:30N 39°35' W 075°36'0 0.0
2017-May-20 02:00N 39°35' W 075°36'0 0.0
2017-May-20 01:31N 39°35' W 075°36'0 0.0
2017-May-20 00:58N 39°35' W 075°36'0 0.0
2017-May-20 00:28N 39°35' W 075°36'0 0.0
2017-May-19 23:59N 39°35' W 075°36'0 0.0
2017-May-19 23:29N 39°35' W 075°36'0 0.0
2017-May-19 22:59N 39°35' W 075°36'0 0.0
2017-May-19 22:30N 39°35' W 075°36'0 0.0
2017-May-19 22:00N 39°35' W 075°36'0 0.0
2017-May-19 21:29N 39°35' W 075°36'0 0.0
2017-May-19 20:59N 39°35' W 075°36'0 0.0
2017-May-19 20:30N 39°35' W 075°36'0 0.0
2017-May-19 20:00N 39°35' W 075°36'0 0.0
2017-May-19 19:30N 39°35' W 075°36'0 0.0
2017-May-19 18:58N 39°35' W 075°36'  

Dump ship's entire track history